createdAt,value
2018-10-05T00:01:57.491Z,9.63
2018-10-05T00:04:26.472Z,9.87
2018-10-05T00:06:54.974Z,9.27
2018-10-05T00:09:23.483Z,9.13
2018-10-05T00:11:51.952Z,9.70
2018-10-05T00:14:20.409Z,10.00
2018-10-05T00:16:48.953Z,10.10
2018-10-05T00:19:17.484Z,9.40
2018-10-05T00:21:45.920Z,9.23
2018-10-05T00:24:14.356Z,9.73
2018-10-05T00:26:42.820Z,9.63
2018-10-05T00:29:11.268Z,8.97
2018-10-05T00:31:39.747Z,9.10
2018-10-05T00:34:08.293Z,8.53
2018-10-05T00:36:36.751Z,9.77
2018-10-05T00:39:06.977Z,8.87
2018-10-05T00:41:35.473Z,10.43
2018-10-05T00:44:03.948Z,9.20
2018-10-05T00:46:32.391Z,10.13
2018-10-05T00:49:00.880Z,10.17
2018-10-05T00:51:29.958Z,9.70
2018-10-05T00:53:58.383Z,10.87
2018-10-05T00:56:26.903Z,9.33
2018-10-05T00:58:55.351Z,8.60
2018-10-05T01:01:23.832Z,8.50
2018-10-05T01:03:52.283Z,10.57
2018-10-05T01:06:20.761Z,9.20
2018-10-05T01:08:49.199Z,8.90
2018-10-05T01:11:17.840Z,10.70
2018-10-05T01:13:46.340Z,9.87
2018-10-05T01:16:14.809Z,9.00
2018-10-05T01:18:43.204Z,8.60
2018-10-05T01:21:11.648Z,7.57
2018-10-05T01:23:40.072Z,8.20
2018-10-05T01:26:08.640Z,7.53
2018-10-05T01:28:37.560Z,6.90
2018-10-05T01:31:05.987Z,6.73
2018-10-05T01:33:34.436Z,7.40
2018-10-05T01:36:02.944Z,8.47
2018-10-05T01:38:31.403Z,7.90
2018-10-05T01:40:59.879Z,8.17
2018-10-05T01:43:29.497Z,7.20
2018-10-05T01:45:57.966Z,7.77
2018-10-05T01:48:26.454Z,6.77
2018-10-05T01:50:54.943Z,8.23
2018-10-05T01:53:24.562Z,6.50
2018-10-05T01:55:53.114Z,6.97
2018-10-05T01:58:21.635Z,7.17
2018-10-05T02:00:50.114Z,6.47
2018-10-05T02:03:18.619Z,7.03
2018-10-05T02:05:47.131Z,8.03
2018-10-05T02:08:15.606Z,6.50
2018-10-05T02:10:44.083Z,6.80
2018-10-05T02:13:12.621Z,6.73
2018-10-05T02:15:41.168Z,5.97
2018-10-05T02:18:09.910Z,6.43
2018-10-05T02:20:40.308Z,7.60
2018-10-05T02:23:08.764Z,5.93
2018-10-05T02:25:37.570Z,6.00
2018-10-05T02:28:06.112Z,7.90
2018-10-05T02:30:34.572Z,8.03
2018-10-05T02:33:03.182Z,8.83
2018-10-05T02:35:32.575Z,10.50
2018-10-05T02:38:01.098Z,9.40
2018-10-05T02:40:30.073Z,9.13
2018-10-05T02:42:58.569Z,8.87
2018-10-05T02:45:28.024Z,9.17
2018-10-05T02:47:56.515Z,6.70
2018-10-05T02:50:24.973Z,7.27
2018-10-05T02:52:53.759Z,7.37
2018-10-05T02:55:22.201Z,8.17
2018-10-05T02:57:50.831Z,8.67
2018-10-05T03:00:30.579Z,8.40
2018-10-05T03:02:59.052Z,8.00
2018-10-05T03:05:27.780Z,7.43
2018-10-05T03:07:56.261Z,8.23
2018-10-05T03:10:25.398Z,7.30
2018-10-05T03:12:53.901Z,7.23
2018-10-05T03:15:22.406Z,8.80
2018-10-05T03:17:50.864Z,8.53
2018-10-05T03:20:19.335Z,8.33
2018-10-05T03:22:49.032Z,8.90
2018-10-05T03:25:17.431Z,8.33
2018-10-05T03:27:46.321Z,8.80
2018-10-05T03:30:14.760Z,9.10
2018-10-05T03:32:43.234Z,6.47
2018-10-05T03:35:12.177Z,5.60
2018-10-05T03:37:40.651Z,6.50
2018-10-05T03:40:09.868Z,7.13
2018-10-05T03:42:38.948Z,6.57
2018-10-05T03:45:08.717Z,7.20
2018-10-05T03:47:37.143Z,6.80
2018-10-05T03:50:05.883Z,6.47
2018-10-05T03:52:34.357Z,6.87
2018-10-05T03:55:03.392Z,7.33
2018-10-05T03:57:31.863Z,6.87
2018-10-05T04:00:00.567Z,7.40
2018-10-05T04:02:29.183Z,7.23
2018-10-05T04:04:57.834Z,7.50
2018-10-05T04:07:26.443Z,7.33
2018-10-05T04:09:55.956Z,6.57
2018-10-05T04:12:24.875Z,7.53
2018-10-05T04:14:53.731Z,7.03
2018-10-05T04:17:22.386Z,6.60
2018-10-05T04:19:50.843Z,6.60
2018-10-05T04:22:24.937Z,7.50
2018-10-05T04:24:53.689Z,7.03
2018-10-05T04:27:22.164Z,7.30
2018-10-05T04:29:50.744Z,7.47
2018-10-05T04:32:19.135Z,6.27
2018-10-05T04:34:48.625Z,6.50
2018-10-05T04:37:17.127Z,7.10
2018-10-05T04:39:47.235Z,6.23
2018-10-05T04:42:16.295Z,6.30
2018-10-05T04:44:44.851Z,6.93
2018-10-05T04:47:13.578Z,6.70
2018-10-05T04:49:42.157Z,8.40
2018-10-05T04:52:11.236Z,8.93
2018-10-05T04:54:39.758Z,7.70
2018-10-05T04:57:08.252Z,7.20
2018-10-05T04:59:36.771Z,6.67
2018-10-05T05:02:05.253Z,6.53
2018-10-05T05:04:33.765Z,7.93
2018-10-05T05:07:02.304Z,7.90
2018-10-05T05:09:30.822Z,8.77
2018-10-05T05:11:59.504Z,9.07
2018-10-05T05:14:28.192Z,8.03
2018-10-05T05:16:57.295Z,7.47
2018-10-05T05:19:25.842Z,8.07
2018-10-05T05:21:54.369Z,8.30
2018-10-05T05:24:22.819Z,8.07
2018-10-05T05:26:51.307Z,7.03
2018-10-05T05:29:19.767Z,6.80
2018-10-05T05:31:49.571Z,6.47
2018-10-05T05:34:18.066Z,6.33
2018-10-05T05:36:46.474Z,6.93
2018-10-05T05:39:15.019Z,6.57
2018-10-05T05:41:43.431Z,6.90
2018-10-05T05:44:11.944Z,7.17
2018-10-05T05:46:40.463Z,7.50
2018-10-05T05:49:09.712Z,6.93
2018-10-05T05:51:38.130Z,7.23
2018-10-05T05:54:06.788Z,6.33
2018-10-05T05:56:35.228Z,6.97
2018-10-05T05:59:03.849Z,7.03
2018-10-05T06:01:33.435Z,7.50
2018-10-05T06:04:01.892Z,7.60
2018-10-05T06:06:30.672Z,7.27
2018-10-05T06:08:59.242Z,8.50
2018-10-05T06:11:28.223Z,7.10
2018-10-05T06:13:56.897Z,6.03
2018-10-05T06:16:25.529Z,7.13
2018-10-05T06:18:54.056Z,7.20
2018-10-05T06:21:22.617Z,7.40
2018-10-05T06:23:51.029Z,6.80
2018-10-05T06:26:19.494Z,7.37
2018-10-05T06:28:48.143Z,6.70
2018-10-05T06:31:16.699Z,7.53
2018-10-05T06:33:45.100Z,7.70
2018-10-05T06:36:13.688Z,7.30
2018-10-05T06:38:42.163Z,7.67
2018-10-05T06:41:10.611Z,7.13
2018-10-05T06:43:39.043Z,7.13
2018-10-05T06:46:07.813Z,8.23
2018-10-05T06:48:36.286Z,8.50
2018-10-05T06:51:04.732Z,10.47
2018-10-05T06:53:33.188Z,9.70
2018-10-05T06:56:01.692Z,9.93
2018-10-05T06:58:31.182Z,10.17
2018-10-05T07:00:59.620Z,10.23
2018-10-05T07:03:28.096Z,9.67
2018-10-05T07:05:56.567Z,9.33
2018-10-05T07:08:24.990Z,8.70
2018-10-05T07:10:53.475Z,14.47
2018-10-05T07:13:21.883Z,17.40
2018-10-05T07:15:51.802Z,7.53
2018-10-05T07:18:23.840Z,7.40
2018-10-05T07:20:52.332Z,7.60
2018-10-05T07:23:21.297Z,7.27
2018-10-05T07:25:49.950Z,7.47
2018-10-05T07:28:18.450Z,7.60
2018-10-05T07:30:49.352Z,7.93
2018-10-05T07:33:18.114Z,7.90
2018-10-05T07:35:46.776Z,7.60
2018-10-05T07:38:15.244Z,7.70
2018-10-05T07:40:43.724Z,8.20
2018-10-05T07:43:12.214Z,7.40
2018-10-05T07:45:40.688Z,7.93
2018-10-05T07:48:10.235Z,7.03
2018-10-05T07:50:38.667Z,7.43
2018-10-05T07:53:07.785Z,7.07
2018-10-05T07:55:36.302Z,7.40
2018-10-05T07:58:04.756Z,7.87
2018-10-05T08:00:33.204Z,7.27
2018-10-05T08:03:01.833Z,8.27
2018-10-05T08:05:30.709Z,8.17
2018-10-05T08:07:59.155Z,7.50
2018-10-05T08:10:27.780Z,7.87
2018-10-05T08:12:56.447Z,7.83
2018-10-05T08:15:24.949Z,7.50
2018-10-05T08:17:53.414Z,7.40
2018-10-05T08:20:23.874Z,7.53
2018-10-05T08:22:52.388Z,6.97
2018-10-05T08:25:20.915Z,7.27
2018-10-05T08:27:49.544Z,7.30
2018-10-05T08:30:17.980Z,6.90
2018-10-05T08:32:47.012Z,6.80
2018-10-05T08:35:15.919Z,7.53
2018-10-05T08:37:44.345Z,6.60
2018-10-05T08:40:12.872Z,7.90
2018-10-05T08:42:41.277Z,6.77
2018-10-05T08:45:09.896Z,6.73
2018-10-05T08:47:38.364Z,6.27
2018-10-05T08:50:06.852Z,6.27
2018-10-05T08:52:35.317Z,6.17
2018-10-05T08:55:03.860Z,5.67
2018-10-05T08:57:32.832Z,6.60
2018-10-05T09:00:01.381Z,6.10
2018-10-05T09:02:30.784Z,6.43
2018-10-05T09:04:59.339Z,6.17
2018-10-05T09:07:27.839Z,6.07
2018-10-05T09:09:56.843Z,6.27
2018-10-05T09:12:25.289Z,5.80
2018-10-05T09:14:54.694Z,5.77
2018-10-05T09:17:23.239Z,6.30
2018-10-05T09:19:51.699Z,5.17
2018-10-05T09:22:20.236Z,5.67
2018-10-05T09:24:49.301Z,5.93
2018-10-05T09:27:17.789Z,5.73
2018-10-05T09:29:46.856Z,5.40
2018-10-05T09:32:15.297Z,5.30
2018-10-05T09:34:43.790Z,5.27
2018-10-05T09:37:12.857Z,6.10
2018-10-05T09:39:41.453Z,5.77
2018-10-05T09:42:11.691Z,5.33
2018-10-05T09:44:40.532Z,5.03
2018-10-05T09:47:09.248Z,5.20
2018-10-05T09:49:37.726Z,4.73
2018-10-05T09:52:06.197Z,5.20
2018-10-05T09:54:35.507Z,5.40
2018-10-05T09:57:04.058Z,4.70
2018-10-05T09:59:32.508Z,4.57
2018-10-05T10:02:06.443Z,4.70
2018-10-05T10:04:35.608Z,4.73
2018-10-05T10:07:04.056Z,4.37
2018-10-05T10:09:32.522Z,4.73
2018-10-05T10:12:00.956Z,4.80
2018-10-05T10:14:29.728Z,4.77
2018-10-05T10:16:58.238Z,4.60
2018-10-05T10:19:26.697Z,4.87
2018-10-05T10:21:55.135Z,4.50
2018-10-05T10:24:23.591Z,4.70
2018-10-05T10:26:52.942Z,4.13
2018-10-05T10:29:21.474Z,4.47
2018-10-05T10:31:50.844Z,5.00
2018-10-05T10:34:19.325Z,4.40
2018-10-05T10:36:47.868Z,4.50
2018-10-05T10:39:16.445Z,3.90
2018-10-05T10:41:44.854Z,4.77
2018-10-05T10:44:13.336Z,4.60
2018-10-05T10:46:41.744Z,4.50
2018-10-05T10:49:10.312Z,4.80
2018-10-05T10:51:38.753Z,4.47
2018-10-05T10:54:07.644Z,4.40
2018-10-05T10:56:36.064Z,4.57
2018-10-05T10:59:04.526Z,4.20
2018-10-05T11:01:33.791Z,4.13
2018-10-05T11:04:02.319Z,3.70
2018-10-05T11:06:30.819Z,4.23
2018-10-05T11:08:59.375Z,8.13
2018-10-05T11:11:27.917Z,4.47
2018-10-05T11:13:56.691Z,4.63
2018-10-05T11:16:25.336Z,4.37
2018-10-05T11:18:53.748Z,4.60
2018-10-05T11:21:22.221Z,4.17
2018-10-05T11:23:51.241Z,4.60
2018-10-05T11:26:19.695Z,4.23
2018-10-05T11:28:48.540Z,4.50
2018-10-05T11:31:17.033Z,4.43
2018-10-05T11:33:45.544Z,3.87
2018-10-05T11:36:14.000Z,4.17
2018-10-05T11:38:42.419Z,4.20
2018-10-05T11:41:10.892Z,4.20
2018-10-05T11:43:39.380Z,3.47
2018-10-05T11:46:08.022Z,4.63
2018-10-05T11:48:36.448Z,4.43
2018-10-05T11:51:05.228Z,3.20
2018-10-05T11:53:33.738Z,3.37
2018-10-05T11:56:02.237Z,4.07
2018-10-05T11:58:31.316Z,4.60
2018-10-05T12:00:59.793Z,4.57
2018-10-05T12:03:28.291Z,3.50
2018-10-05T12:05:56.850Z,3.23
2018-10-05T12:08:25.322Z,3.60
2018-10-05T12:10:53.889Z,3.73
2018-10-05T12:13:22.360Z,3.50
2018-10-05T12:15:51.498Z,3.13
2018-10-05T12:18:19.948Z,2.90
2018-10-05T12:20:48.718Z,2.50
2018-10-05T12:23:17.194Z,3.10
2018-10-05T12:25:45.691Z,3.40
2018-10-05T12:28:14.148Z,2.90
2018-10-05T12:30:42.636Z,2.60
2018-10-05T12:33:11.857Z,2.90
2018-10-05T12:35:41.223Z,2.90
2018-10-05T12:38:11.152Z,3.17
2018-10-05T12:40:39.636Z,2.63
2018-10-05T12:43:08.925Z,2.90
2018-10-05T12:45:39.053Z,3.03
2018-10-05T12:48:07.535Z,2.70
2018-10-05T12:50:36.000Z,3.40
2018-10-05T12:53:04.436Z,3.40
2018-10-05T12:55:33.622Z,3.00
2018-10-05T12:58:02.031Z,3.00
2018-10-05T13:00:30.500Z,3.23
2018-10-05T13:02:58.949Z,3.23
2018-10-05T13:05:27.500Z,3.30
2018-10-05T13:07:55.936Z,3.23
2018-10-05T13:10:24.399Z,3.27
2018-10-05T13:12:52.912Z,2.60
2018-10-05T13:15:21.356Z,2.47
2018-10-05T13:17:49.903Z,2.63
2018-10-05T13:20:18.368Z,2.77
2018-10-05T13:22:46.816Z,3.10
2018-10-05T13:25:15.932Z,3.00
2018-10-05T13:27:44.438Z,2.83
2018-10-05T13:30:12.947Z,3.07
2018-10-05T13:32:41.439Z,3.27
2018-10-05T13:35:10.421Z,3.10
2018-10-05T13:37:39.824Z,2.90
2018-10-05T13:40:09.788Z,2.40
2018-10-05T13:42:38.908Z,2.60
2018-10-05T13:45:07.635Z,2.50
2018-10-05T13:47:36.096Z,2.90
2018-10-05T13:50:04.810Z,2.60
2018-10-05T13:52:33.279Z,2.83
2018-10-05T13:55:01.903Z,2.40
2018-10-05T13:57:30.505Z,2.70
2018-10-05T13:59:59.028Z,2.50
2018-10-05T14:02:27.645Z,2.67
2018-10-05T14:04:57.049Z,2.70
2018-10-05T14:07:26.482Z,2.80
2018-10-05T14:09:55.071Z,2.60
2018-10-05T14:12:23.596Z,2.43
2018-10-05T14:14:52.165Z,2.87
2018-10-05T14:17:20.624Z,3.00
2018-10-05T14:19:49.355Z,2.40
2018-10-05T14:22:17.850Z,3.97
2018-10-05T14:24:46.239Z,3.30
2018-10-05T14:27:14.723Z,2.40
2018-10-05T14:29:43.219Z,2.63
2018-10-05T14:32:12.540Z,3.10
2018-10-05T14:34:41.275Z,2.83
2018-10-05T14:37:10.674Z,2.90
2018-10-05T14:39:39.073Z,2.50
2018-10-05T14:42:07.524Z,2.73
2018-10-05T14:44:35.974Z,2.77
2018-10-05T14:47:04.896Z,2.90
2018-10-05T14:49:33.518Z,2.87
2018-10-05T14:52:02.111Z,2.87
2018-10-05T14:54:36.146Z,2.60
2018-10-05T14:57:04.637Z,2.90
2018-10-05T14:59:33.040Z,2.50
2018-10-05T15:02:01.512Z,2.50
2018-10-05T15:04:30.732Z,2.40
2018-10-05T15:06:59.518Z,2.90
2018-10-05T15:09:29.799Z,3.00
2018-10-05T15:11:58.226Z,2.70
2018-10-05T15:14:26.669Z,2.90
2018-10-05T15:16:55.130Z,2.70
2018-10-05T15:19:23.646Z,2.93
2018-10-05T15:21:52.755Z,2.80
2018-10-05T15:24:21.293Z,2.93
2018-10-05T15:26:49.999Z,2.60
2018-10-05T15:29:18.565Z,2.77
2018-10-05T15:31:47.119Z,3.00
2018-10-05T15:34:15.776Z,2.90
2018-10-05T15:36:44.252Z,2.93
2018-10-05T15:39:13.385Z,2.80
2018-10-05T15:41:41.937Z,5.23
2018-10-05T15:44:11.849Z,3.50
2018-10-05T15:47:18.072Z,2.67
2018-10-05T15:49:46.789Z,2.33
2018-10-05T15:52:15.327Z,3.10
2018-10-05T15:54:44.135Z,2.70
2018-10-05T15:57:13.378Z,2.53
2018-10-05T15:59:42.390Z,2.77
2018-10-05T16:02:11.322Z,3.10
2018-10-05T16:04:39.870Z,2.37
2018-10-05T16:07:08.369Z,2.77
2018-10-05T16:09:36.843Z,2.63
2018-10-05T16:12:05.420Z,3.87
2018-10-05T16:14:34.606Z,2.70
2018-10-05T16:17:03.225Z,2.80
2018-10-05T16:19:33.248Z,2.70
2018-10-05T16:22:03.187Z,2.90
2018-10-05T16:24:36.210Z,3.20
2018-10-05T16:27:04.701Z,3.23
2018-10-05T16:29:33.980Z,2.70
2018-10-05T16:32:03.553Z,2.90
2018-10-05T16:34:32.592Z,2.93
2018-10-05T16:37:01.032Z,4.30
2018-10-05T16:39:32.179Z,3.13
2018-10-05T16:42:01.304Z,3.10
2018-10-05T16:44:29.884Z,3.03
2018-10-05T16:46:58.360Z,4.00
2018-10-05T16:49:27.851Z,3.63
2018-10-05T16:51:57.132Z,3.70
2018-10-05T16:54:26.292Z,3.20
2018-10-05T16:56:55.008Z,3.00
2018-10-05T16:59:23.491Z,11.70
2018-10-05T17:01:52.220Z,3.10
2018-10-05T17:04:20.758Z,3.30
2018-10-05T17:06:49.171Z,3.27
2018-10-05T17:09:17.654Z,3.53
2018-10-05T17:11:46.712Z,5.20
2018-10-05T17:14:15.280Z,3.87
2018-10-05T17:16:43.708Z,3.77
2018-10-05T17:19:13.038Z,3.80
2018-10-05T17:21:41.491Z,3.47
2018-10-05T17:24:09.947Z,3.57
2018-10-05T17:26:38.344Z,3.97
2018-10-05T17:29:06.854Z,36.97
2018-10-05T17:31:35.403Z,14.53
2018-10-05T17:34:03.825Z,4.70
2018-10-05T17:36:32.783Z,4.00
2018-10-05T17:39:01.212Z,3.83
2018-10-05T17:41:29.650Z,3.90
2018-10-05T17:43:58.096Z,4.10
2018-10-05T17:46:26.566Z,3.73
2018-10-05T17:48:55.109Z,4.30
2018-10-05T17:51:23.584Z,4.87
2018-10-05T17:53:53.627Z,4.70
2018-10-05T17:56:22.094Z,5.70
2018-10-05T17:58:50.547Z,4.73
2018-10-05T18:01:19.082Z,4.03
2018-10-05T18:03:47.571Z,4.37
2018-10-05T18:06:16.070Z,4.33
2018-10-05T18:08:44.473Z,4.17
2018-10-05T18:11:13.695Z,4.90
2018-10-05T18:13:42.165Z,4.37
2018-10-05T18:16:11.079Z,5.10
2018-10-05T18:18:39.626Z,4.53
2018-10-05T18:21:08.269Z,5.20
2018-10-05T18:23:36.724Z,4.40
2018-10-05T18:26:05.400Z,4.23
2018-10-05T18:28:33.900Z,4.73
2018-10-05T18:31:03.113Z,4.77
2018-10-05T18:33:31.952Z,4.93
2018-10-05T18:36:00.323Z,5.03
2018-10-05T18:38:28.749Z,4.67
2018-10-05T18:40:57.264Z,4.77
2018-10-05T18:43:25.768Z,5.10
2018-10-05T18:45:54.249Z,4.77
2018-10-05T18:48:22.693Z,5.17
2018-10-05T18:50:52.803Z,5.50
2018-10-05T18:53:21.286Z,4.90
2018-10-05T18:55:50.398Z,4.70
2018-10-05T18:58:18.884Z,4.93
2018-10-05T19:00:48.351Z,4.63
2018-10-05T19:03:16.931Z,4.83
2018-10-05T19:05:45.467Z,5.20
2018-10-05T19:08:14.923Z,5.50
2018-10-05T19:10:43.875Z,5.50
2018-10-05T19:13:13.072Z,4.67
2018-10-05T19:15:41.535Z,4.53
2018-10-05T19:18:10.012Z,4.70
2018-10-05T19:20:38.504Z,5.50
2018-10-05T19:23:06.979Z,5.50
2018-10-05T19:25:35.414Z,5.67
2018-10-05T19:28:04.171Z,5.57
2018-10-05T19:30:32.595Z,4.93
2018-10-05T19:33:01.243Z,5.37
2018-10-05T19:35:29.652Z,5.53
2018-10-05T19:37:58.123Z,4.90
2018-10-05T19:40:27.062Z,5.60
2018-10-05T19:42:55.562Z,5.90
2018-10-05T19:45:24.101Z,5.50
2018-10-05T19:47:52.590Z,5.90
2018-10-05T19:50:20.991Z,5.77
2018-10-05T19:52:49.434Z,5.87
2018-10-05T19:55:17.883Z,6.20
2018-10-05T19:57:46.335Z,5.77
2018-10-05T20:00:15.226Z,5.90
2018-10-05T20:02:43.692Z,6.50
2018-10-05T20:05:12.122Z,7.10
2018-10-05T20:07:40.538Z,6.00
2018-10-05T20:10:08.996Z,6.50
2018-10-05T20:12:37.442Z,6.10
2018-10-05T20:15:05.854Z,5.53
2018-10-05T20:17:34.453Z,5.60
2018-10-05T20:20:02.873Z,6.33
2018-10-05T20:22:31.869Z,5.60
2018-10-05T20:25:00.295Z,5.37
2018-10-05T20:27:28.781Z,5.77
2018-10-05T20:29:57.231Z,6.10
2018-10-05T20:32:25.683Z,5.70
2018-10-05T20:34:54.135Z,5.20
2018-10-05T20:37:22.837Z,5.47
2018-10-05T20:39:51.259Z,5.73
2018-10-05T20:42:19.711Z,6.40
2018-10-05T20:44:48.169Z,6.03
2018-10-05T20:47:16.605Z,6.77
2018-10-05T20:49:45.032Z,6.37
2018-10-05T20:52:13.451Z,6.13
2018-10-05T20:54:42.100Z,7.30
2018-10-05T20:57:10.528Z,7.10
2018-10-05T20:59:39.655Z,6.33
2018-10-05T21:02:08.200Z,5.73
2018-10-05T21:04:36.675Z,6.40
2018-10-05T21:07:05.092Z,5.97
2018-10-05T21:09:33.815Z,6.10
2018-10-05T21:12:02.472Z,5.90
2018-10-05T21:14:30.936Z,5.67
2018-10-05T21:16:59.437Z,6.73
2018-10-05T21:19:27.895Z,6.03
2018-10-05T21:21:56.328Z,6.10
2018-10-05T21:24:24.891Z,5.97
2018-10-05T21:26:54.033Z,6.93
2018-10-05T21:29:22.543Z,6.47
2018-10-05T21:31:51.013Z,6.43
2018-10-05T21:34:19.474Z,6.73
2018-10-05T21:36:47.905Z,6.10
2018-10-05T21:39:17.677Z,7.00
2018-10-05T21:41:46.076Z,6.10
2018-10-05T21:44:14.796Z,6.87
2018-10-05T21:46:43.236Z,6.97
2018-10-05T21:49:11.675Z,7.07
2018-10-05T21:51:40.112Z,6.90
2018-10-05T21:54:08.627Z,6.80
2018-10-05T21:56:37.068Z,7.20
2018-10-05T21:59:06.447Z,6.93
2018-10-05T22:01:34.922Z,6.60
2018-10-05T22:04:03.371Z,7.50
2018-10-05T22:06:32.497Z,6.37
2018-10-05T22:09:01.055Z,6.90
2018-10-05T22:11:29.541Z,6.73
2018-10-05T22:13:57.984Z,7.07
2018-10-05T22:16:26.408Z,6.60
2018-10-05T22:18:56.856Z,6.80
2018-10-05T22:21:25.372Z,7.07
2018-10-05T22:23:54.478Z,6.70
2018-10-05T22:26:22.945Z,6.70
2018-10-05T22:28:51.433Z,6.47
2018-10-05T22:31:19.874Z,6.53
2018-10-05T22:33:48.315Z,7.13
2018-10-05T22:36:16.780Z,6.67
2018-10-05T22:38:45.262Z,6.43
2018-10-05T22:41:13.774Z,6.00
2018-10-05T22:43:42.270Z,6.50
2018-10-05T22:46:10.725Z,6.80
2018-10-05T22:48:39.156Z,7.43
2018-10-05T22:51:07.657Z,6.87
2018-10-05T22:53:36.091Z,7.43
2018-10-05T22:56:04.629Z,7.83
2018-10-05T22:58:33.130Z,7.43
2018-10-05T23:01:01.589Z,7.47
2018-10-05T23:03:31.168Z,7.50
2018-10-05T23:05:59.653Z,7.17
2018-10-05T23:08:28.113Z,6.90
2018-10-05T23:10:56.575Z,7.33
2018-10-05T23:13:25.064Z,6.47
2018-10-05T23:15:54.582Z,7.10
2018-10-05T23:18:23.111Z,6.90
2018-10-05T23:20:51.632Z,6.80
2018-10-05T23:23:20.088Z,7.43
2018-10-05T23:25:48.599Z,6.50
2018-10-05T23:28:17.100Z,6.63
2018-10-05T23:30:45.604Z,6.30
2018-10-05T23:33:15.717Z,6.13
2018-10-05T23:35:44.419Z,6.67
2018-10-05T23:38:13.059Z,7.07
2018-10-05T23:40:41.944Z,6.50
2018-10-05T23:43:10.739Z,6.63
2018-10-05T23:45:39.216Z,6.10
2018-10-05T23:48:07.733Z,6.30
2018-10-05T23:50:36.225Z,5.80
2018-10-05T23:53:04.666Z,5.90
2018-10-05T23:55:34.327Z,6.70
2018-10-05T23:58:03.628Z,6.33
